Duncanville, Texas
Current Conditions -  °F | °C
As of 4:58 PM on Wednesday 17 Dec 2014 (Local Time) from KRBD Reporting Station
Light Rain Light Rain  
Wind Chill:   Ceiling: 2800
Heat Index:   Visibility: 3mi
Dew Point:   Wind: 6mph
Humidity: 86%   Direction: 80°E
Pressure: 30.1"   Gusts: NA
Location:  32.65°N, 96.91°W
Report Text: KRBD 172258Z 08005KT 3SM -RA BR BKN028 OVC035 08/06 A3010 RMK AO2 P0000 T00780056
Loading
Personal Weather Stations






























Interactive Weather Map New forecast layout! Learn more

10-Day Weather Forecast

Advertisements
Track Severe Weather on mobile